Time;durP1;ratioP1;P1;durP2;ratioP2;P2;SDS_P1;SDS_P2;PMS_P1;PMS_P2;Temp;Humidity;BMP_temperature;BMP_pressure;BME280_temperature;BME280_humidity;BME280_pressure;Samples;Min_cycle;Max_cycle;Signal;HPM_P1;HPM_P2
2022/12/28 00:00:52;;;;;;;5.10;3.03;;;1.00;99.90;2.10;97869.00;;;;5011037;28;20418;-82
2022/12/28 00:03:41;;;;;;;6.93;3.80;;;1.20;99.90;1.70;97871.00;;;;5009011;28;20473;-80
2022/12/28 00:06:31;;;;;;;5.67;3.87;;;1.40;99.90;1.80;97856.00;;;;5006107;28;20464;-81
2022/12/28 00:09:20;;;;;;;3.47;2.90;;;0.90;99.90;1.70;97854.00;;;;5009983;28;20972;-81
2022/12/28 00:12:09;;;;;;;4.97;3.43;;;0.90;99.90;1.50;97844.00;;;;5011119;28;20465;-82
2022/12/28 00:14:59;;;;;;;3.63;3.00;;;0.80;99.90;1.50;97846.00;;;;5006601;28;20417;-81
2022/12/28 00:17:47;;;;;;;11.50;3.70;;;0.70;99.90;1.70;97844.00;;;;5001398;28;20418;-82
2022/12/28 00:20:36;;;;;;;3.97;3.13;;;0.70;99.90;1.80;97846.00;;;;5011574;28;20701;-80
2022/12/28 00:23:26;;;;;;;4.60;3.57;;;0.70;99.90;1.50;97842.00;;;;5010395;28;20433;-81
2022/12/28 00:26:14;;;;;;;2.27;2.17;;;0.70;99.90;1.10;97846.00;;;;5010419;28;20460;-81
2022/12/28 00:29:04;;;;;;;3.83;2.73;;;1.90;99.90;1.00;97837.00;;;;5001639;28;20460;-81
2022/12/28 00:31:54;;;;;;;4.90;2.73;;;1.40;99.90;1.30;97851.00;;;;5011069;28;20421;-83
2022/12/28 00:34:43;;;;;;;3.30;2.50;;;0.50;99.90;1.50;97858.00;;;;5010968;28;20424;-82
2022/12/28 00:37:32;;;;;;;3.23;2.87;;;1.50;99.90;1.50;97855.00;;;;5011231;28;20469;-80
2022/12/28 00:40:21;;;;;;;3.20;2.67;;;1.20;99.90;1.50;97858.00;;;;5009984;28;20456;-81
2022/12/28 00:43:11;;;;;;;3.80;2.47;;;0.70;99.90;1.60;97871.00;;;;5010677;28;20424;-82
2022/12/28 00:46:00;;;;;;;2.47;1.87;;;0.60;99.90;1.50;97875.00;;;;5010744;28;20461;-80
2022/12/28 00:48:51;;;;;;;3.60;2.40;;;1.80;99.90;1.60;97874.00;;;;5011402;28;20791;-81
2022/12/28 00:51:39;;;;;;;2.53;2.30;;;0.50;99.90;1.70;97884.00;;;;5011762;28;20432;-82
2022/12/28 00:54:29;;;;;;;3.47;2.80;;;0.50;99.90;1.70;97887.00;;;;5011488;28;20436;-81
2022/12/28 00:57:17;;;;;;;3.57;3.07;;;1.00;99.90;1.60;97888.00;;;;5010354;28;20488;-80
2022/12/28 01:00:08;;;;;;;4.83;3.47;;;0.60;99.90;1.50;97882.00;;;;5006126;28;20801;-82
2022/12/28 01:02:57;;;;;;;4.80;2.87;;;0.70;99.90;1.60;97894.00;;;;5005811;28;20455;-81
2022/12/28 01:05:47;;;;;;;2.33;2.13;;;1.20;99.90;1.60;97887.00;;;;5009964;28;20449;-82
2022/12/28 01:08:37;;;;;;;3.00;2.40;;;0.60;99.90;1.70;97881.00;;;;5007474;28;20541;-81
2022/12/28 01:11:28;;;;;;;2.73;2.53;;;0.60;99.90;1.70;97881.00;;;;5009966;28;20441;-81
2022/12/28 01:14:16;;;;;;;7.10;3.13;;;2.10;99.90;1.50;97872.00;;;;4998269;28;20779;-82
2022/12/28 01:17:05;;;;;;;2.57;1.80;;;0.60;99.90;1.50;97867.00;;;;5011321;28;20512;-81
2022/12/28 01:19:54;;;;;;;3.30;2.83;;;2.00;99.90;1.60;97872.00;;;;5011137;28;20518;-82
2022/12/28 01:22:44;;;;;;;3.33;2.37;;;1.70;99.90;1.30;97865.00;;;;5010699;28;20425;-82
2022/12/28 01:25:33;;;;;;;2.40;2.00;;;0.60;99.90;0.90;97854.00;;;;5009343;28;20503;-81
2022/12/28 01:28:22;;;;;;;3.13;2.17;;;0.50;99.90;1.30;97849.00;;;;5010758;28;20938;-83
2022/12/28 01:31:13;;;;;;;2.80;2.60;;;0.50;99.90;1.50;97849.00;;;;5011110;28;20457;-82
2022/12/28 01:34:03;;;;;;;3.87;2.83;;;1.10;99.90;1.10;97840.00;;;;5011003;28;20471;-81
2022/12/28 01:36:51;;;;;;;5.87;3.33;;;0.50;99.90;1.30;97845.00;;;;5010850;28;20476;-81
2022/12/28 01:39:41;;;;;;;5.17;3.60;;;1.50;99.90;1.40;97855.00;;;;5009767;28;20430;-81
2022/12/28 01:42:30;;;;;;;3.20;2.50;;;1.90;99.90;1.50;97844.00;;;;5011787;28;20430;-81
2022/12/28 01:45:22;;;;;;;2.90;2.70;;;1.50;99.90;1.50;97848.00;;;;5011257;28;20449;-81
2022/12/28 01:48:21;;;;;;;4.60;2.93;;;0.40;99.90;1.40;97830.00;;;;5010354;28;20437;-82
2022/12/28 01:51:09;;;;;;;4.23;2.50;;;0.90;99.90;1.20;97816.00;;;;5010520;28;20495;-82
2022/12/28 01:54:00;;;;;;;4.07;2.90;;;1.20;99.90;1.10;97812.00;;;;5010753;28;20426;-80
2022/12/28 01:56:51;;;;;;;3.67;2.37;;;0.30;99.90;1.20;97811.00;;;;5010263;28;21023;-82
2022/12/28 01:59:44;;;;;;;2.53;2.33;;;0.30;99.90;1.20;97838.00;;;;5010385;28;20432;-81
2022/12/28 02:02:34;;;;;;;3.27;2.97;;;0.50;99.90;1.20;97832.00;;;;5009618;28;20437;-82
2022/12/28 02:05:26;;;;;;;3.13;2.70;;;0.70;99.90;0.90;97828.00;;;;5009754;28;20483;-82
2022/12/28 02:08:23;;;;;;;2.77;2.20;;;0.80;99.90;0.50;97817.00;;;;5010042;28;20508;-80
2022/12/28 02:11:17;;;;;;;3.30;3.00;;;1.10;99.90;0.30;97810.00;;;;5010030;28;20973;-83
2022/12/28 02:14:08;;;;;;;6.97;2.70;;;-0.10;99.90;0.60;97816.00;;;;5009736;28;20433;-81
2022/12/28 02:16:57;;;;;;;3.47;2.43;;;1.50;99.90;0.80;97809.00;;;;5008946;28;20469;-82
2022/12/28 02:19:48;;;;;;;3.23;2.30;;;1.00;99.90;1.00;97805.00;;;;5014290;28;20429;-82
2022/12/28 02:23:09;;;;;;;2.93;2.40;;;0.70;99.90;1.00;97794.00;;;;5009292;28;20492;-82
2022/12/28 02:26:46;;;;;;;2.57;2.37;;;-0.10;99.90;0.90;97805.00;;;;5007569;28;20831;-83
2022/12/28 02:30:02;;;;;;;2.80;2.20;;;1.00;99.90;0.90;97797.00;;;;5012103;28;20852;-84
2022/12/28 02:33:00;;;;;;;1.83;1.73;;;-0.10;99.90;1.10;97797.00;;;;5008009;28;20437;-80
2022/12/28 02:35:57;;;;;;;4.57;2.37;;;1.00;99.90;1.10;97795.00;;;;5012562;28;20445;-82
2022/12/28 02:38:49;;;;;;;3.17;2.27;;;1.20;99.90;1.20;97791.00;;;;5001924;28;20457;-83
2022/12/28 02:41:41;;;;;;;3.73;2.30;;;0.30;99.90;1.30;97776.00;;;;5012937;28;20425;-82
2022/12/28 02:50:54;;;;;;;3.80;1.90;;;0.10;99.90;0.80;97771.00;;;;5013106;28;20552;-84
2022/12/28 02:56:05;;;;;;;3.20;2.30;;;0.00;99.90;0.90;97773.00;;;;5013768;28;20436;-84
2022/12/28 02:57:30;;;;;;;2.57;2.27;;;0.00;99.90;1.10;97762.00;;;;5013231;28;20468;-83
2022/12/28 03:00:21;;;;;;;2.43;2.23;;;1.30;99.90;1.20;97766.00;;;;5013478;28;20440;-83
2022/12/28 03:03:21;;;;;;;1.93;1.83;;;0.10;99.90;0.70;97757.00;;;;5009688;28;20605;-82
2022/12/28 03:09:44;;;;;;;3.90;2.70;;;-0.10;99.90;1.00;97743.00;;;;4951657;29;20440;-83
2022/12/28 03:12:36;;;;;;;2.40;2.20;;;1.10;99.90;0.90;97751.00;;;;5011362;28;20462;-85
2022/12/28 03:15:33;;;;;;;2.27;1.73;;;0.60;99.90;0.80;97736.00;;;;5012936;28;20448;-84
2022/12/28 03:31:06;;;;;;;2.70;1.60;;;1.60;99.90;0.80;97722.00;;;;5011873;28;20433;-82
2022/12/28 03:34:05;;;;;;;3.13;2.20;;;0.70;99.90;0.70;97734.00;;;;5012556;28;20934;-81
2022/12/28 03:37:02;;;;;;;5.40;3.63;;;1.00;99.90;0.60;97727.00;;;;5012433;28;20459;-83
2022/12/28 03:39:58;;;;;;;4.33;2.87;;;-0.20;99.90;0.50;97735.00;;;;5011897;28;20425;-82
2022/12/28 03:46:03;;;;;;;3.00;2.73;;;-0.30;99.90;0.50;97728.00;;;;5006806;28;20449;-83
2022/12/28 03:48:53;;;;;;;2.30;2.07;;;1.90;99.90;0.70;97717.00;;;;5012443;28;20432;-82
2022/12/28 03:51:45;;;;;;;2.97;2.77;;;0.50;99.90;0.50;97710.00;;;;5012700;28;20942;-82
2022/12/28 03:54:35;;;;;;;4.37;3.07;;;-0.30;99.90;0.50;97714.00;;;;5007977;28;20430;-83
2022/12/28 03:57:23;;;;;;;5.27;2.70;;;-0.20;99.90;0.50;97718.00;;;;5010732;28;20465;-82
2022/12/28 04:00:13;;;;;;;3.77;2.23;;;0.50;99.90;0.60;97706.00;;;;5011351;28;20453;-83
2022/12/28 04:03:02;;;;;;;2.30;2.10;;;-0.30;99.90;0.40;97707.00;;;;5007493;28;21018;-82
2022/12/28 04:05:50;;;;;;;4.37;2.97;;;1.80;99.90;0.20;97697.00;;;;5009516;28;21001;-83
2022/12/28 04:08:40;;;;;;;2.57;2.37;;;1.00;99.90;-0.10;97691.00;;;;5007189;28;20812;-83
2022/12/28 04:11:29;;;;;;;2.63;2.30;;;1.40;99.90;0.20;97694.00;;;;5012353;28;20488;-82
2022/12/28 04:14:18;;;;;;;2.33;2.10;;;1.30;99.90;0.10;97686.00;;;;5001562;28;20819;-83
2022/12/28 04:17:07;;;;;;;4.30;3.37;;;0.80;99.90;-0.30;97695.00;;;;5009699;28;20820;-82
2022/12/28 04:19:55;;;;;;;3.53;3.03;;;-0.70;99.90;-0.20;97696.00;;;;5005774;28;20973;-82
2022/12/28 04:22:44;;;;;;;0.90;0.90;;;-0.70;99.90;-0.80;97693.00;;;;5005320;28;20521;-83
2022/12/28 04:25:35;;;;;;;3.43;2.93;;;-0.70;99.90;-0.10;97698.00;;;;5005382;28;20459;-82
2022/12/28 04:28:24;;;;;;;2.30;2.10;;;-0.90;99.90;0.10;97695.00;;;;5011219;28;20496;-83
2022/12/28 04:31:14;;;;;;;2.20;1.97;;;-1.00;99.90;0.10;97695.00;;;;5011558;28;20417;-82
2022/12/28 04:34:03;;;;;;;2.97;2.10;;;0.00;99.90;0.20;97702.00;;;;5012508;28;20437;-82
2022/12/28 04:36:51;;;;;;;2.73;2.23;;;-0.80;99.90;-0.20;97704.00;;;;5012309;28;20517;-82
2022/12/28 04:39:40;;;;;;;3.43;3.13;;;-0.80;99.90;-0.50;97697.00;;;;5011118;28;20473;-82
2022/12/28 04:42:31;;;;;;;3.97;2.53;;;-0.50;99.90;-0.60;97685.00;;;;5011850;28;20437;-83
2022/12/28 04:45:20;;;;;;;1.60;1.50;;;-1.00;99.90;-0.70;97680.00;;;;5012468;28;20457;-84
2022/12/28 04:48:09;;;;;;;2.70;2.50;;;-1.10;99.90;-0.50;97696.00;;;;5011686;28;20790;-82
2022/12/28 04:50:58;;;;;;;2.07;1.97;;;0.40;99.90;-0.30;97691.00;;;;5011719;28;20479;-85
2022/12/28 04:53:47;;;;;;;2.37;2.00;;;-1.10;99.90;-0.10;97704.00;;;;5011374;28;20866;-84
2022/12/28 04:56:36;;;;;;;1.67;1.67;;;-0.70;99.90;-0.10;97696.00;;;;5011255;28;20441;-84
2022/12/28 04:59:26;;;;;;;2.37;2.03;;;-0.50;99.90;-0.10;97690.00;;;;5011396;28;20484;-84
2022/12/28 05:02:14;;;;;;;2.67;2.47;;;-0.90;99.90;-0.40;97697.00;;;;5011222;28;20444;-82
2022/12/28 05:05:04;;;;;;;2.37;1.87;;;-0.70;99.90;-0.80;97710.00;;;;5011059;28;20417;-85
2022/12/28 05:07:52;;;;;;;3.17;2.20;;;-1.10;99.90;-1.00;97699.00;;;;5010890;28;20448;-84
2022/12/28 05:10:41;;;;;;;3.60;2.50;;;-1.00;99.90;-0.60;97702.00;;;;5011284;28;21024;-84
2022/12/28 05:13:30;;;;;;;4.20;3.07;;;-1.20;99.90;-0.40;97696.00;;;;5007253;28;20854;-84
2022/12/28 05:16:23;;;;;;;3.10;2.73;;;-1.20;99.90;-0.50;97685.00;;;;5011681;28;20468;-84
2022/12/28 05:19:12;;;;;;;4.17;2.67;;;-0.10;99.90;-0.30;97678.00;;;;5011391;28;20457;-84
2022/12/28 05:22:01;;;;;;;3.37;3.07;;;1.10;99.90;-0.30;97678.00;;;;5010455;28;20433;-82
2022/12/28 05:24:50;;;;;;;2.77;2.53;;;-1.10;99.90;-0.60;97680.00;;;;5011569;28;20432;-82
2022/12/28 05:27:39;;;;;;;2.00;1.90;;;-0.90;99.90;-1.40;97676.00;;;;5011042;28;20433;-87
2022/12/28 05:30:28;;;;;;;1.33;1.23;;;-1.10;99.90;-1.30;97688.00;;;;5010617;28;20425;-90
2022/12/28 05:33:18;;;;;;;3.83;3.00;;;0.70;99.90;-0.80;97683.00;;;;5010521;28;21041;-82
2022/12/28 05:36:11;;;;;;;1.57;1.47;;;-1.40;99.90;-0.90;97687.00;;;;5004822;28;20471;-85
2022/12/28 05:38:59;;;;;;;2.60;1.90;;;-1.40;99.90;-0.70;97694.00;;;;5009985;28;20465;-84
2022/12/28 05:41:48;;;;;;;5.90;2.63;;;-0.10;99.90;-0.70;97692.00;;;;5004929;28;20492;-83
2022/12/28 05:44:37;;;;;;;1.90;1.80;;;-1.30;99.90;-0.90;97700.00;;;;5010887;28;20448;-84
2022/12/28 05:47:25;;;;;;;2.10;1.60;;;-1.40;99.90;-0.90;97708.00;;;;5010422;28;20425;-85
2022/12/28 05:50:16;;;;;;;2.70;2.50;;;-0.90;99.90;-0.60;97693.00;;;;5008919;28;20425;-84
2022/12/28 05:53:04;;;;;;;2.00;1.90;;;-1.40;99.90;-0.30;97706.00;;;;5011493;28;20492;-85
2022/12/28 05:55:53;;;;;;;3.07;2.13;;;0.80;99.90;-0.20;97698.00;;;;5014420;28;20453;-84
2022/12/28 05:58:42;;;;;;;4.63;2.53;;;-1.30;99.90;-0.40;97701.00;;;;5015138;28;20483;-84
2022/12/28 06:01:33;;;;;;;1.67;1.57;;;-1.30;99.90;-0.90;97695.00;;;;5014234;28;20902;-84
2022/12/28 06:04:22;;;;;;;2.20;2.10;;;-0.30;99.90;-1.10;97692.00;;;;5013629;28;20812;-86
2022/12/28 06:07:12;;;;;;;3.23;2.27;;;-0.20;99.90;-0.90;97695.00;;;;5014041;28;20934;-83
2022/12/28 06:10:01;;;;;;;5.30;2.60;;;-1.40;99.90;-0.60;97696.00;;;;5014142;28;20452;-84
2022/12/28 06:12:50;;;;;;;3.00;2.50;;;-1.30;99.90;-0.50;97681.00;;;;5010352;28;20499;-84
2022/12/28 06:15:38;;;;;;;2.30;2.20;;;-1.40;99.90;-0.60;97679.00;;;;5014429;28;20832;-83
2022/12/28 06:18:29;;;;;;;2.17;1.97;;;0.80;99.90;-1.30;97672.00;;;;5013973;28;20421;-84
2022/12/28 06:21:20;;;;;;;7.70;3.67;;;-1.60;99.90;-1.10;97666.00;;;;5012365;28;20940;-84
2022/12/28 06:24:12;;;;;;;1.57;1.47;;;-1.60;99.90;-1.40;97661.00;;;;5010946;28;20437;-87
2022/12/28 06:27:01;;;;;;;7.50;4.80;;;-1.70;99.90;-1.00;97657.00;;;;5013611;28;20810;-84
2022/12/28 06:29:50;;;;;;;5.07;3.27;;;-1.70;99.90;-0.90;97654.00;;;;5010308;28;20429;-84
2022/12/28 06:32:38;;;;;;;4.83;3.90;;;-0.80;99.90;-0.90;97652.00;;;;5018907;28;20428;-84
2022/12/28 06:35:27;;;;;;;3.40;2.80;;;-0.20;99.90;-0.60;97647.00;;;;5012092;28;20441;-85
2022/12/28 06:38:16;;;;;;;5.27;3.03;;;-0.60;99.90;-0.50;97653.00;;;;5021022;28;20459;-83
2022/12/28 06:41:08;;;;;;;3.30;3.00;;;-1.20;99.90;-0.70;97653.00;;;;5008856;28;20425;-83
2022/12/28 06:44:01;;;;;;;1.80;1.63;;;0.80;99.90;-1.10;97643.00;;;;5014288;28;20787;-85
2022/12/28 06:46:50;;;;;;;5.67;3.17;;;-1.50;99.90;-1.20;97628.00;;;;5013703;28;20448;-84
2022/12/28 06:49:39;;;;;;;3.07;2.27;;;-1.40;99.90;-0.60;97621.00;;;;5012658;28;20508;-84
2022/12/28 06:52:28;;;;;;;3.90;3.40;;;-0.50;99.90;-0.50;97619.00;;;;5013154;28;20425;-84
2022/12/28 06:55:16;;;;;;;3.67;3.17;;;0.00;99.90;-0.50;97639.00;;;;5014242;28;20909;-84
2022/12/28 06:58:07;;;;;;;4.37;2.10;;;-1.40;99.90;-0.80;97618.00;;;;5013316;28;20961;-84
2022/12/28 07:00:56;;;;;;;1.40;1.30;;;-1.50;99.90;-1.00;97617.00;;;;5014434;28;20481;-85
2022/12/28 07:03:47;;;;;;;2.20;2.07;;;-1.50;99.90;-0.90;97621.00;;;;5013788;28;20482;-85
2022/12/28 07:06:39;;;;;;;5.33;2.87;;;-1.50;99.90;-0.40;97629.00;;;;5013617;28;20823;-84
2022/12/28 07:09:27;;;;;;;3.43;2.60;;;-0.40;99.90;-0.40;97637.00;;;;5013238;28;20966;-84
2022/12/28 07:12:16;;;;;;;2.73;2.27;;;-0.50;99.90;-0.90;97629.00;;;;5013925;28;20437;-85
2022/12/28 07:15:08;;;;;;;1.97;1.87;;;-1.30;99.90;-0.90;97627.00;;;;5011449;28;20429;-84
2022/12/28 07:17:58;;;;;;;3.77;2.93;;;-1.30;99.90;-0.40;97634.00;;;;5010181;28;20839;-83
2022/12/28 07:20:47;;;;;;;3.60;3.27;;;-1.30;99.90;-0.40;97632.00;;;;5012520;28;20465;-84
2022/12/28 07:23:36;;;;;;;6.30;3.67;;;-1.20;99.90;-0.40;97635.00;;;;5012754;28;20430;-84
2022/12/28 07:26:28;;;;;;;7.27;4.13;;;-1.20;99.90;-0.50;97638.00;;;;5011505;28;20452;-84
2022/12/28 07:29:17;;;;;;;15.60;9.33;;;-1.20;99.90;-0.20;97634.00;;;;5011583;28;20977;-84
2022/12/28 07:32:07;;;;;;;19.00;12.43;;;0.80;99.90;0.00;97626.00;;;;4999703;28;20519;-84
2022/12/28 07:34:56;;;;;;;15.40;11.53;;;-1.00;99.90;-0.10;97623.00;;;;5012628;28;20947;-84
2022/12/28 07:37:45;;;;;;;10.53;6.87;;;-0.90;99.90;-0.40;97616.00;;;;5012284;28;20445;-84
2022/12/28 07:40:34;;;;;;;14.90;7.50;;;-1.00;99.90;-0.30;97615.00;;;;5003450;28;20469;-84
2022/12/28 07:43:22;;;;;;;8.93;6.27;;;-1.00;99.90;-0.20;97607.00;;;;5008477;28;20437;-83
2022/12/28 07:46:13;;;;;;;8.83;6.63;;;-1.00;99.90;-0.50;97619.00;;;;5010657;28;20481;-84
2022/12/28 07:49:04;;;;;;;28.30;10.27;;;-0.90;99.90;-1.00;97607.00;;;;5012728;28;20467;-83
2022/12/28 07:51:53;;;;;;;6.90;4.10;;;-3.60;99.90;-1.10;97610.00;;;;5007125;28;20434;-84
2022/12/28 07:54:41;;;;;;;5.90;4.67;;;-1.30;99.90;-0.70;97626.00;;;;5006467;28;20418;-84
2022/12/28 07:57:30;;;;;;;4.73;3.57;;;-0.90;99.90;-0.60;97612.00;;;;5009635;28;20425;-84
2022/12/28 08:00:19;;;;;;;5.60;4.30;;;-1.30;99.90;-0.70;97615.00;;;;5000300;28;20466;-84
2022/12/28 08:03:08;;;;;;;4.03;3.60;;;-1.30;99.90;-0.40;97629.00;;;;5006242;28;20472;-84
2022/12/28 08:06:04;;;;;;;4.27;3.37;;;-1.20;99.90;-0.60;97629.00;;;;5007776;28;20468;-84
2022/12/28 08:08:55;;;;;;;4.10;2.20;;;-1.20;99.90;-0.80;97623.00;;;;5005836;28;20868;-83
2022/12/28 08:11:45;;;;;;;5.33;3.80;;;0.80;99.90;-0.40;97640.00;;;;5003150;28;20852;-84
2022/12/28 08:14:34;;;;;;;4.77;3.03;;;0.20;99.90;-0.30;97632.00;;;;5008026;28;20438;-83
2022/12/28 08:17:23;;;;;;;3.63;2.90;;;-0.20;99.90;0.10;97632.00;;;;5010361;28;20461;-84
2022/12/28 08:20:12;;;;;;;3.07;2.77;;;-1.00;99.90;0.10;97642.00;;;;5008483;28;20586;-83
2022/12/28 08:23:02;;;;;;;3.47;3.17;;;-0.80;99.90;-0.30;97639.00;;;;5005871;28;20421;-84
2022/12/28 08:25:51;;;;;;;2.70;2.50;;;-0.90;99.90;0.30;97655.00;;;;5001164;28;20444;-83
2022/12/28 08:28:41;;;;;;;6.63;3.47;;;0.00;99.90;0.20;97647.00;;;;5009970;28;20931;-83
2022/12/28 08:31:32;;;;;;;2.40;2.20;;;-1.60;99.90;0.70;97635.00;;;;5009318;28;20422;-84
2022/12/28 08:34:25;;;;;;;6.73;4.63;;;0.70;99.90;0.30;97624.00;;;;5010681;28;20436;-83
2022/12/28 08:37:14;;;;;;;4.23;3.83;;;-0.40;99.90;0.70;97629.00;;;;5008730;28;20455;-84
2022/12/28 08:40:06;;;;;;;3.70;2.93;;;-0.30;99.90;0.70;97625.00;;;;5011562;28;20477;-84
2022/12/28 08:42:57;;;;;;;3.73;3.43;;;-0.30;99.90;1.00;97629.00;;;;5011200;28;21119;-83
2022/12/28 08:45:58;;;;;;;4.37;3.77;;;1.60;99.90;1.60;97636.00;;;;5012755;28;20946;-84
2022/12/28 08:48:48;;;;;;;4.03;3.70;;;0.70;99.90;0.80;97648.00;;;;5010068;28;20437;-87
2022/12/28 08:51:40;;;;;;;3.30;2.97;;;0.20;99.90;0.10;97630.00;;;;5010270;28;20452;-83
2022/12/28 08:54:29;;;;;;;3.67;3.37;;;0.40;99.90;0.70;97646.00;;;;5011099;28;20425;-84
2022/12/28 08:57:19;;;;;;;6.37;4.33;;;1.30;99.90;0.90;97642.00;;;;5011227;28;20499;-84
2022/12/28 09:00:10;;;;;;;5.37;4.33;;;0.10;99.90;1.10;97626.00;;;;5009667;28;20473;-83
2022/12/28 09:02:59;;;;;;;7.60;4.53;;;0.20;99.90;1.00;97623.00;;;;5010016;28;21188;-84
2022/12/28 09:05:48;;;;;;;3.50;3.20;;;0.20;99.90;0.80;97620.00;;;;5011811;28;20452;-84
2022/12/28 09:08:40;;;;;;;5.47;3.93;;;0.20;99.90;1.10;97624.00;;;;5009640;28;20422;-83
2022/12/28 09:11:30;;;;;;;4.97;4.20;;;2.30;99.90;0.90;97631.00;;;;5007987;28;20464;-84
2022/12/28 09:14:20;;;;;;;4.30;3.90;;;0.30;99.90;1.20;97617.00;;;;5007707;28;20942;-84
2022/12/28 09:17:11;;;;;;;4.67;3.43;;;0.40;99.90;1.30;97624.00;;;;5006340;28;20469;-83
2022/12/28 09:19:59;;;;;;;4.23;3.93;;;0.70;99.90;1.70;97610.00;;;;5005424;28;20519;-83
2022/12/28 09:22:48;;;;;;;6.90;4.53;;;0.60;99.90;2.30;97621.00;;;;5012898;28;20441;-83
2022/12/28 09:25:37;;;;;;;4.10;3.57;;;0.80;99.90;2.60;97619.00;;;;5011280;28;20982;-83
2022/12/28 09:28:26;;;;;;;6.70;4.37;;;1.10;99.90;2.60;97604.00;;;;5004965;28;20865;-83
2022/12/28 09:31:17;;;;;;;5.50;4.10;;;1.30;99.90;2.90;97618.00;;;;5006826;28;20440;-83
2022/12/28 09:34:07;;;;;;;5.47;4.17;;;1.50;99.90;3.00;97616.00;;;;5012662;28;20430;-83
2022/12/28 09:37:24;;;;;;;5.97;3.83;;;1.60;99.90;2.90;97620.00;;;;4933441;28;20831;-83
2022/12/28 09:49:20;;;;;;;6.43;4.10;;;4.60;99.90;2.90;97596.00;;;;4879217;29;21328;-82
2022/12/28 09:53:04;;;;;;;4.33;3.70;;;4.70;99.90;3.10;97592.00;;;;4918331;28;20460;-80
2022/12/28 09:56:43;;;;;;;7.43;3.83;;;1.60;99.90;3.80;97610.00;;;;4940347;28;20459;-79
2022/12/28 10:00:05;;;;;;;3.63;3.23;;;2.40;99.90;3.80;97602.00;;;;4944692;28;20980;-79
2022/12/28 10:03:09;;;;;;;3.63;2.80;;;2.70;99.90;3.70;97595.00;;;;4968852;22;21109;-71
2022/12/28 10:06:00;;;;;;;5.40;3.83;;;5.40;99.90;4.20;97598.00;;;;5009466;28;20993;-67
2022/12/28 10:08:53;;;;;;;9.80;4.57;;;3.60;99.90;4.70;97603.00;;;;4991730;28;20444;-69
2022/12/28 10:11:44;;;;;;;10.77;4.07;;;3.10;99.90;5.00;97599.00;;;;4972567;28;20490;-68
2022/12/28 10:14:36;;;;;;;3.73;3.33;;;3.30;99.90;5.10;97594.00;;;;4972700;28;20425;-68
2022/12/28 10:17:29;;;;;;;9.53;4.23;;;3.50;99.90;5.40;97599.00;;;;4974124;28;20606;-67
2022/12/28 10:20:21;;;;;;;6.93;3.63;;;3.70;99.90;5.30;97589.00;;;;4968526;28;20202;-67
2022/12/28 10:23:21;;;;;;;5.63;3.23;;;3.90;99.90;5.40;97595.00;;;;4958060;28;20515;-67
2022/12/28 10:26:17;;;;;;;9.93;4.00;;;5.90;99.90;5.40;97575.00;;;;4970774;28;20247;-68
2022/12/28 10:29:18;;;;;;;4.67;3.07;;;4.20;99.90;5.50;97578.00;;;;4963539;28;21045;-68
2022/12/28 10:32:11;;;;;;;10.33;4.43;;;4.20;99.90;5.70;97584.00;;;;4968860;28;20875;-69
2022/12/28 10:35:03;;;;;;;4.47;3.30;;;4.30;99.90;5.80;97578.00;;;;4981294;28;20480;-68
2022/12/28 10:38:00;;;;;;;4.23;3.13;;;4.30;99.90;5.90;97572.00;;;;4968530;28;20256;-68
2022/12/28 10:41:00;;;;;;;7.70;4.67;;;4.50;99.90;6.00;97561.00;;;;4988868;28;20291;-67
2022/12/28 10:43:53;;;;;;;3.83;3.20;;;4.60;99.90;6.00;97564.00;;;;5032198;28;20200;-67
2022/12/28 10:46:56;;;;;;;9.87;4.47;;;4.60;99.90;5.70;97565.00;;;;5031105;28;20245;-67
2022/12/28 10:49:51;;;;;;;8.00;4.13;;;4.60;99.90;5.70;97560.00;;;;5030917;28;20637;-67
2022/12/28 10:53:00;;;;;;;7.07;4.00;;;4.60;99.90;6.00;97553.00;;;;5031676;28;20197;-66
2022/12/28 10:55:48;;;;;;;6.70;4.67;;;4.70;99.90;6.40;97545.00;;;;5031217;28;20252;-67
2022/12/28 10:58:39;;;;;;;10.53;4.77;;;4.80;99.90;6.70;97540.00;;;;5029754;28;20302;-67
2022/12/28 11:01:30;;;;;;;8.40;4.40;;;5.00;99.90;6.80;97527.00;;;;5030790;28;20644;-67
2022/12/28 11:04:21;;;;;;;9.63;4.73;;;5.20;99.90;6.90;97531.00;;;;5029694;28;20244;-67
2022/12/28 11:07:29;;;;;;;6.07;4.53;;;5.30;99.90;7.50;97525.00;;;;5029898;28;20564;-67
2022/12/28 11:10:27;;;;;;;4.97;3.70;;;5.60;99.90;7.70;97523.00;;;;5030177;28;20224;-67
2022/12/28 11:13:20;;;;;;;5.80;3.87;;;5.80;99.90;7.90;97503.00;;;;5028253;28;20200;-67
2022/12/28 11:16:14;;;;;;;5.17;4.67;;;6.00;99.90;8.40;97513.00;;;;5023087;28;20615;-68
2022/12/28 11:19:04;;;;;;;8.97;3.27;;;6.30;99.90;8.30;97498.00;;;;5027389;28;20226;-67
2022/12/28 11:21:53;;;;;;;9.60;3.57;;;6.60;99.90;8.60;97501.00;;;;5031854;28;20224;-67
2022/12/28 11:24:42;;;;;;;8.63;3.60;;;6.80;99.90;9.30;97479.00;;;;5032098;28;22195;-67
2022/12/28 11:27:31;;;;;;;7.93;6.03;;;7.10;99.90;9.70;97505.00;;;;5027115;28;20243;-67
2022/12/28 11:30:20;;;;;;;10.33;8.23;;;7.80;99.90;9.50;97485.00;;;;5028779;28;20369;-68
2022/12/28 11:33:27;;;;;;;5.00;3.43;;;8.30;99.90;9.40;97492.00;;;;5028482;28;20208;-66
2022/12/28 11:36:17;;;;;;;6.53;3.90;;;8.70;99.90;9.10;97486.00;;;;5026623;28;20255;-67
2022/12/28 11:39:31;;;;;;;6.23;4.30;;;8.70;99.90;9.30;97480.00;;;;5038223;28;20221;-66
2022/12/28 11:42:55;;;;;;;6.60;2.90;;;8.50;99.90;8.90;97459.00;;;;5030617;28;20263;-66
2022/12/28 11:45:56;;;;;;;4.90;3.60;;;8.40;99.90;9.50;97459.00;;;;5035969;28;20289;-67
2022/12/28 11:48:59;;;;;;;7.33;4.13;;;8.20;99.90;9.90;97455.00;;;;5039036;28;20224;-66
2022/12/28 11:51:47;;;;;;;7.83;4.00;;;8.20;99.90;10.40;97430.00;;;;5035793;28;20315;-66
2022/12/28 11:54:38;;;;;;;8.63;5.37;;;8.40;99.90;10.60;97436.00;;;;5033463;28;20665;-66
2022/12/28 11:57:34;;;;;;;5.77;3.70;;;8.70;99.90;10.80;97429.00;;;;5038141;28;20205;-66
2022/12/28 12:00:48;;;;;;;7.07;4.17;;;9.00;99.90;11.70;97418.00;;;;5035164;28;20205;-67
2022/12/28 12:04:23;;;;;;;6.37;3.90;;;9.60;99.90;11.60;97413.00;;;;5034629;28;20242;-67
2022/12/28 12:07:26;;;;;;;3.53;3.23;;;10.30;99.90;11.90;97432.00;;;;5036023;28;20305;-67
2022/12/28 12:10:34;;;;;;;4.83;3.53;;;10.70;99.90;11.20;97415.00;;;;5038984;28;20201;-67
2022/12/28 12:13:51;;;;;;;4.20;3.80;;;10.80;99.90;11.50;97413.00;;;;5031808;28;20564;-66
2022/12/28 12:16:49;;;;;;;6.13;2.97;;;10.80;99.90;11.40;97419.00;;;;5036931;28;20208;-66
2022/12/28 12:19:43;;;;;;;6.27;3.77;;;10.80;99.80;11.00;97409.00;;;;5038012;28;20217;-67
2022/12/28 12:22:47;;;;;;;6.67;4.47;;;10.60;99.30;11.20;97380.00;;;;5028639;28;20832;-66
2022/12/28 12:25:40;;;;;;;8.50;3.67;;;10.40;99.60;12.60;97392.00;;;;5025740;28;20248;-66
2022/12/28 12:28:36;;;;;;;6.20;3.80;;;10.70;99.90;12.90;97389.00;;;;5030364;28;20275;-66
2022/12/28 12:31:30;;;;;;;5.17;3.23;;;11.10;99.60;11.90;97388.00;;;;5030182;28;20212;-67
2022/12/28 12:34:27;;;;;;;11.93;4.10;;;11.20;97.30;11.80;97377.00;;;;5028042;28;20338;-68
2022/12/28 12:37:46;;;;;;;6.80;4.27;;;10.90;97.50;12.10;97373.00;;;;5035712;28;20201;-66
2022/12/28 12:41:19;;;;;;;7.57;3.40;;;10.80;97.90;13.10;97362.00;;;;5027886;28;20216;-66
2022/12/28 12:44:25;;;;;;;10.70;7.60;;;11.10;98.60;13.40;97357.00;;;;5028719;28;20205;-67
2022/12/28 12:47:40;;;;;;;6.87;5.07;;;11.40;97.10;14.00;97361.00;;;;5036114;28;20207;-67
2022/12/28 12:50:46;;;;;;;6.23;4.83;;;11.90;96.80;14.50;97361.00;;;;5030988;28;20198;-68
2022/12/28 12:53:56;;;;;;;11.60;7.07;;;12.40;95.90;14.80;97371.00;;;;5026331;28;20396;-67
2022/12/28 12:56:53;;;;;;;7.67;5.20;;;13.00;93.60;15.40;97360.00;;;;5028987;28;20197;-65
2022/12/28 13:00:10;;;;;;;7.23;4.00;;;13.30;93.60;15.90;97353.00;;;;5025945;28;20295;-68
2022/12/28 13:03:19;;;;;;;6.93;3.70;;;13.90;92.60;16.70;97355.00;;;;5026829;28;20411;-67
2022/12/28 13:06:10;;;;;;;9.87;4.27;;;14.60;91.40;16.40;97350.00;;;;5027577;28;20201;-67
2022/12/28 13:09:03;;;;;;;7.63;4.60;;;15.00;87.80;17.10;97351.00;;;;5028453;28;20598;-67
2022/12/28 13:11:53;;;;;;;9.23;3.10;;;15.20;87.40;17.40;97351.00;;;;5026694;28;20211;-66
2022/12/28 13:14:45;;;;;;;4.10;3.40;;;15.60;84.40;17.40;97354.00;;;;5030406;28;20263;-66
2022/12/28 13:17:34;;;;;;;5.57;3.40;;;16.00;81.50;17.70;97347.00;;;;5029509;28;20235;-66
2022/12/28 13:20:23;;;;;;;9.40;3.50;;;16.20;78.90;17.30;97341.00;;;;5030608;28;20198;-67
2022/12/28 13:23:16;;;;;;;5.93;3.43;;;16.20;76.20;16.00;97351.00;;;;5033659;28;20354;-67
2022/12/28 13:26:10;;;;;;;14.83;4.00;;;15.60;76.50;16.30;97339.00;;;;5025642;28;20216;-66
2022/12/28 13:29:01;;;;;;;20.47;4.63;;;15.30;77.90;16.20;97348.00;;;;5031936;28;20225;-67
2022/12/28 13:31:51;;;;;;;6.20;2.93;;;15.20;77.70;16.50;97322.00;;;;5029560;28;20202;-67
2022/12/28 13:34:49;;;;;;;3.63;2.60;;;15.10;78.00;15.30;97331.00;;;;5028901;28;20202;-66